sensor_id;sensor_type;location;lat;lon;timestamp;temperature;humidity
57753;DHT22;43583;53.132;6.574;2022-08-05T00:00:27;18.40;99.90
57753;DHT22;43583;53.132;6.574;2022-08-05T00:02:52;18.40;99.90
57753;DHT22;43583;53.132;6.574;2022-08-05T00:05:21;18.40;99.90
57753;DHT22;43583;53.132;6.574;2022-08-05T00:07:50;18.30;99.90
57753;DHT22;43583;53.132;6.574;2022-08-05T00:10:16;18.40;99.90
57753;DHT22;43583;53.132;6.574;2022-08-05T00:12:41;18.30;99.90
57753;DHT22;43583;53.132;6.574;2022-08-05T00:15:07;18.30;99.90
57753;DHT22;43583;53.132;6.574;2022-08-05T00:17:33;18.30;99.90
57753;DHT22;43583;53.132;6.574;2022-08-05T00:19:58;18.30;99.90
57753;DHT22;43583;53.132;6.574;2022-08-05T00:22:24;18.30;99.90
57753;DHT22;43583;53.132;6.574;2022-08-05T00:24:49;18.30;99.90
57753;DHT22;43583;53.132;6.574;2022-08-05T00:27:15;18.30;99.90
57753;DHT22;43583;53.132;6.574;2022-08-05T00:29:40;18.20;99.90
57753;DHT22;43583;53.132;6.574;2022-08-05T00:32:07;18.20;99.90
57753;DHT22;43583;53.132;6.574;2022-08-05T00:34:35;18.20;99.90
57753;DHT22;43583;53.132;6.574;2022-08-05T00:37:00;18.20;99.90
57753;DHT22;43583;53.132;6.574;2022-08-05T00:39:26;18.10;99.90
57753;DHT22;43583;53.132;6.574;2022-08-05T00:41:51;18.10;99.90
57753;DHT22;43583;53.132;6.574;2022-08-05T00:44:17;18.10;99.90
57753;DHT22;43583;53.132;6.574;2022-08-05T00:46:43;18.00;99.90
57753;DHT22;43583;53.132;6.574;2022-08-05T00:49:08;18.00;99.90
57753;DHT22;43583;53.132;6.574;2022-08-05T00:51:34;18.00;99.90
57753;DHT22;43583;53.132;6.574;2022-08-05T00:54:01;18.00;99.90
57753;DHT22;43583;53.132;6.574;2022-08-05T00:56:26;18.00;99.90
57753;DHT22;43583;53.132;6.574;2022-08-05T00:58:52;18.10;99.90
57753;DHT22;43583;53.132;6.574;2022-08-05T01:01:17;18.00;99.90
57753;DHT22;43583;53.132;6.574;2022-08-05T01:03:43;18.00;99.90
57753;DHT22;43583;53.132;6.574;2022-08-05T01:06:10;18.00;99.90
57753;DHT22;43583;53.132;6.574;2022-08-05T01:08:36;18.00;99.90
57753;DHT22;43583;53.132;6.574;2022-08-05T01:11:08;18.10;99.90
57753;DHT22;43583;53.132;6.574;2022-08-05T01:19:23;18.10;99.90
57753;DHT22;43583;53.132;6.574;2022-08-05T01:21:59;18.10;99.90
57753;DHT22;43583;53.132;6.574;2022-08-05T01:27:06;18.10;99.90
57753;DHT22;43583;53.132;6.574;2022-08-05T01:29:40;18.10;99.90
57753;DHT22;43583;53.132;6.574;2022-08-05T01:32:08;18.10;99.90
57753;DHT22;43583;53.132;6.574;2022-08-05T01:34:44;18.10;99.90
57753;DHT22;43583;53.132;6.574;2022-08-05T01:37:15;18.10;99.90
57753;DHT22;43583;53.132;6.574;2022-08-05T01:39:45;18.10;99.90
57753;DHT22;43583;53.132;6.574;2022-08-05T01:42:17;18.10;99.90
57753;DHT22;43583;53.132;6.574;2022-08-05T01:44:45;18.00;99.90
57753;DHT22;43583;53.132;6.574;2022-08-05T01:47:14;18.00;99.90
57753;DHT22;43583;53.132;6.574;2022-08-05T01:49:42;18.00;99.90
57753;DHT22;43583;53.132;6.574;2022-08-05T01:52:09;17.90;99.90
57753;DHT22;43583;53.132;6.574;2022-08-05T01:54:41;17.90;99.90
57753;DHT22;43583;53.132;6.574;2022-08-05T01:57:09;17.90;99.90
57753;DHT22;43583;53.132;6.574;2022-08-05T01:59:36;17.90;99.90
57753;DHT22;43583;53.132;6.574;2022-08-05T02:02:05;17.90;99.90
57753;DHT22;43583;53.132;6.574;2022-08-05T02:04:34;17.80;99.90
57753;DHT22;43583;53.132;6.574;2022-08-05T02:07:00;17.80;99.90
57753;DHT22;43583;53.132;6.574;2022-08-05T02:09:26;17.80;99.90
57753;DHT22;43583;53.132;6.574;2022-08-05T02:12:13;17.80;99.90
57753;DHT22;43583;53.132;6.574;2022-08-05T02:14:46;17.70;99.90
57753;DHT22;43583;53.132;6.574;2022-08-05T02:17:35;17.70;99.90
57753;DHT22;43583;53.132;6.574;2022-08-05T02:20:06;17.70;99.90
57753;DHT22;43583;53.132;6.574;2022-08-05T02:22:38;17.70;99.90
57753;DHT22;43583;53.132;6.574;2022-08-05T02:25:07;17.70;99.90
57753;DHT22;43583;53.132;6.574;2022-08-05T02:27:37;17.70;99.90
57753;DHT22;43583;53.132;6.574;2022-08-05T02:30:05;17.70;99.90
57753;DHT22;43583;53.132;6.574;2022-08-05T02:32:33;17.70;99.90
57753;DHT22;43583;53.132;6.574;2022-08-05T02:35:04;17.60;99.90
57753;DHT22;43583;53.132;6.574;2022-08-05T02:37:31;17.60;99.90
57753;DHT22;43583;53.132;6.574;2022-08-05T02:39:58;17.60;99.90
57753;DHT22;43583;53.132;6.574;2022-08-05T02:42:25;17.60;99.90
57753;DHT22;43583;53.132;6.574;2022-08-05T02:44:51;17.60;99.90
57753;DHT22;43583;53.132;6.574;2022-08-05T02:47:18;17.60;99.90
57753;DHT22;43583;53.132;6.574;2022-08-05T02:49:45;17.60;99.90
57753;DHT22;43583;53.132;6.574;2022-08-05T02:52:19;17.60;99.90
57753;DHT22;43583;53.132;6.574;2022-08-05T02:54:46;17.60;99.90
57753;DHT22;43583;53.132;6.574;2022-08-05T02:57:13;17.60;99.90
57753;DHT22;43583;53.132;6.574;2022-08-05T02:59:44;17.60;99.90
57753;DHT22;43583;53.132;6.574;2022-08-05T03:02:11;17.60;99.90
57753;DHT22;43583;53.132;6.574;2022-08-05T03:04:38;17.60;99.90
57753;DHT22;43583;53.132;6.574;2022-08-05T03:07:04;17.60;99.90
57753;DHT22;43583;53.132;6.574;2022-08-05T03:09:30;17.60;99.90
57753;DHT22;43583;53.132;6.574;2022-08-05T03:11:56;17.50;99.90
57753;DHT22;43583;53.132;6.574;2022-08-05T03:14:21;17.50;99.90
57753;DHT22;43583;53.132;6.574;2022-08-05T03:16:47;17.50;99.90
57753;DHT22;43583;53.132;6.574;2022-08-05T03:19:12;17.50;99.90
57753;DHT22;43583;53.132;6.574;2022-08-05T03:21:38;17.50;99.90
57753;DHT22;43583;53.132;6.574;2022-08-05T03:24:04;17.50;99.90
57753;DHT22;43583;53.132;6.574;2022-08-05T03:26:30;17.50;99.90
57753;DHT22;43583;53.132;6.574;2022-08-05T03:28:56;17.40;99.90
57753;DHT22;43583;53.132;6.574;2022-08-05T03:31:23;17.40;99.90
57753;DHT22;43583;53.132;6.574;2022-08-05T03:33:49;17.40;99.90
57753;DHT22;43583;53.132;6.574;2022-08-05T03:36:14;17.40;99.90
57753;DHT22;43583;53.132;6.574;2022-08-05T03:38:40;17.30;99.90
57753;DHT22;43583;53.132;6.574;2022-08-05T03:41:07;17.30;99.90
57753;DHT22;43583;53.132;6.574;2022-08-05T03:43:32;17.30;99.90
57753;DHT22;43583;53.132;6.574;2022-08-05T03:45:58;17.20;99.90
57753;DHT22;43583;53.132;6.574;2022-08-05T03:48:23;17.20;99.90
57753;DHT22;43583;53.132;6.574;2022-08-05T03:51:03;17.20;99.90
57753;DHT22;43583;53.132;6.574;2022-08-05T03:56:29;17.20;99.90
57753;DHT22;43583;53.132;6.574;2022-08-05T03:58:59;17.10;99.90
57753;DHT22;43583;53.132;6.574;2022-08-05T04:01:27;17.10;99.90
57753;DHT22;43583;53.132;6.574;2022-08-05T04:03:55;17.10;99.90
57753;DHT22;43583;53.132;6.574;2022-08-05T04:06:22;17.10;99.90
57753;DHT22;43583;53.132;6.574;2022-08-05T04:08:48;17.10;99.90
57753;DHT22;43583;53.132;6.574;2022-08-05T04:11:14;17.10;99.90
57753;DHT22;43583;53.132;6.574;2022-08-05T04:13:40;17.10;99.90
57753;DHT22;43583;53.132;6.574;2022-08-05T04:16:08;17.10;99.90
57753;DHT22;43583;53.132;6.574;2022-08-05T04:18:34;17.10;99.90
57753;DHT22;43583;53.132;6.574;2022-08-05T04:21:01;17.10;99.90
57753;DHT22;43583;53.132;6.574;2022-08-05T04:23:28;17.10;99.90
57753;DHT22;43583;53.132;6.574;2022-08-05T04:25:54;17.10;99.90
57753;DHT22;43583;53.132;6.574;2022-08-05T04:28:20;17.10;99.90
57753;DHT22;43583;53.132;6.574;2022-08-05T04:30:47;17.10;99.90
57753;DHT22;43583;53.132;6.574;2022-08-05T04:33:13;17.10;99.90
57753;DHT22;43583;53.132;6.574;2022-08-05T04:35:40;17.20;99.90
57753;DHT22;43583;53.132;6.574;2022-08-05T04:38:06;17.20;99.90
57753;DHT22;43583;53.132;6.574;2022-08-05T04:40:36;17.20;99.90
57753;DHT22;43583;53.132;6.574;2022-08-05T04:43:02;17.30;99.90
57753;DHT22;43583;53.132;6.574;2022-08-05T04:45:28;17.30;99.90
57753;DHT22;43583;53.132;6.574;2022-08-05T04:47:54;17.30;99.90
57753;DHT22;43583;53.132;6.574;2022-08-05T04:50:26;17.40;99.90
57753;DHT22;43583;53.132;6.574;2022-08-05T04:52:52;17.40;99.90
57753;DHT22;43583;53.132;6.574;2022-08-05T04:55:17;17.40;99.90
57753;DHT22;43583;53.132;6.574;2022-08-05T04:57:44;17.40;99.90
57753;DHT22;43583;53.132;6.574;2022-08-05T05:00:11;17.50;99.90
57753;DHT22;43583;53.132;6.574;2022-08-05T05:02:36;17.50;99.90
57753;DHT22;43583;53.132;6.574;2022-08-05T05:05:03;17.50;99.90
57753;DHT22;43583;53.132;6.574;2022-08-05T05:07:29;17.60;99.90
57753;DHT22;43583;53.132;6.574;2022-08-05T05:09:55;17.60;99.90
57753;DHT22;43583;53.132;6.574;2022-08-05T05:12:20;17.60;99.90
57753;DHT22;43583;53.132;6.574;2022-08-05T05:14:46;17.70;99.90
57753;DHT22;43583;53.132;6.574;2022-08-05T05:17:11;17.70;99.90
57753;DHT22;43583;53.132;6.574;2022-08-05T05:19:37;17.70;99.90
57753;DHT22;43583;53.132;6.574;2022-08-05T05:22:04;17.70;99.90
57753;DHT22;43583;53.132;6.574;2022-08-05T05:24:29;17.70;99.90
57753;DHT22;43583;53.132;6.574;2022-08-05T05:26:55;17.70;99.90
57753;DHT22;43583;53.132;6.574;2022-08-05T05:29:20;17.70;99.90
57753;DHT22;43583;53.132;6.574;2022-08-05T05:31:46;17.70;99.90
57753;DHT22;43583;53.132;6.574;2022-08-05T05:34:11;17.70;99.90
57753;DHT22;43583;53.132;6.574;2022-08-05T05:36:37;17.70;99.90
57753;DHT22;43583;53.132;6.574;2022-08-05T05:39:02;17.70;99.90
57753;DHT22;43583;53.132;6.574;2022-08-05T05:41:28;17.80;99.90
57753;DHT22;43583;53.132;6.574;2022-08-05T05:43:53;17.80;99.90
57753;DHT22;43583;53.132;6.574;2022-08-05T05:46:19;17.80;99.90
57753;DHT22;43583;53.132;6.574;2022-08-05T05:48:45;17.80;99.90
57753;DHT22;43583;53.132;6.574;2022-08-05T05:51:22;17.80;99.90
57753;DHT22;43583;53.132;6.574;2022-08-05T05:53:50;17.80;99.90
57753;DHT22;43583;53.132;6.574;2022-08-05T05:56:15;17.80;99.90
57753;DHT22;43583;53.132;6.574;2022-08-05T05:58:41;17.70;99.90
57753;DHT22;43583;53.132;6.574;2022-08-05T06:01:07;17.80;99.90
57753;DHT22;43583;53.132;6.574;2022-08-05T06:03:32;18.30;99.90
57753;DHT22;43583;53.132;6.574;2022-08-05T06:05:58;18.90;99.90
57753;DHT22;43583;53.132;6.574;2022-08-05T06:08:23;19.50;99.90
57753;DHT22;43583;53.132;6.574;2022-08-05T06:10:49;20.10;99.90
57753;DHT22;43583;53.132;6.574;2022-08-05T06:13:14;20.30;99.90
57753;DHT22;43583;53.132;6.574;2022-08-05T06:15:40;20.90;99.90
57753;DHT22;43583;53.132;6.574;2022-08-05T06:18:05;21.90;99.90
57753;DHT22;43583;53.132;6.574;2022-08-05T06:20:31;23.00;99.90
57753;DHT22;43583;53.132;6.574;2022-08-05T06:22:57;24.10;99.90
57753;DHT22;43583;53.132;6.574;2022-08-05T06:25:23;25.20;99.90
57753;DHT22;43583;53.132;6.574;2022-08-05T06:27:48;25.50;99.90
57753;DHT22;43583;53.132;6.574;2022-08-05T06:30:14;25.80;99.90
57753;DHT22;43583;53.132;6.574;2022-08-05T06:32:41;25.90;99.90
57753;DHT22;43583;53.132;6.574;2022-08-05T06:35:08;26.10;99.90
57753;DHT22;43583;53.132;6.574;2022-08-05T06:37:33;26.80;99.00
57753;DHT22;43583;53.132;6.574;2022-08-05T06:39:59;27.50;96.40
57753;DHT22;43583;53.132;6.574;2022-08-05T06:42:24;28.20;94.00
57753;DHT22;43583;53.132;6.574;2022-08-05T06:44:50;28.10;91.60
57753;DHT22;43583;53.132;6.574;2022-08-05T06:47:15;27.80;90.70
57753;DHT22;43583;53.132;6.574;2022-08-05T06:49:41;27.30;90.80
57753;DHT22;43583;53.132;6.574;2022-08-05T06:52:06;27.60;90.90
57753;DHT22;43583;53.132;6.574;2022-08-05T06:54:32;28.20;89.70
57753;DHT22;43583;53.132;6.574;2022-08-05T06:56:57;28.70;88.30
57753;DHT22;43583;53.132;6.574;2022-08-05T06:59:23;28.70;84.70
57753;DHT22;43583;53.132;6.574;2022-08-05T07:01:49;28.20;82.90
57753;DHT22;43583;53.132;6.574;2022-08-05T07:04:14;27.80;85.00
57753;DHT22;43583;53.132;6.574;2022-08-05T07:06:40;27.90;83.60
57753;DHT22;43583;53.132;6.574;2022-08-05T07:09:05;28.50;82.40
57753;DHT22;43583;53.132;6.574;2022-08-05T07:11:34;28.80;79.50
57753;DHT22;43583;53.132;6.574;2022-08-05T07:14:00;28.90;76.50
57753;DHT22;43583;53.132;6.574;2022-08-05T07:16:44;28.70;75.10
57753;DHT22;43583;53.132;6.574;2022-08-05T07:19:20;28.20;75.10
57753;DHT22;43583;53.132;6.574;2022-08-05T07:21:47;28.00;78.00
57753;DHT22;43583;53.132;6.574;2022-08-05T07:24:13;27.60;78.00
57753;DHT22;43583;53.132;6.574;2022-08-05T07:26:39;27.00;77.90
57753;DHT22;43583;53.132;6.574;2022-08-05T07:29:06;26.10;79.20
57753;DHT22;43583;53.132;6.574;2022-08-05T07:31:32;25.50;81.30
57753;DHT22;43583;53.132;6.574;2022-08-05T07:33:58;25.80;82.90
57753;DHT22;43583;53.132;6.574;2022-08-05T07:36:23;26.20;82.20
57753;DHT22;43583;53.132;6.574;2022-08-05T07:38:49;26.30;81.10
57753;DHT22;43583;53.132;6.574;2022-08-05T07:41:17;26.50;79.80
57753;DHT22;43583;53.132;6.574;2022-08-05T07:43:44;27.40;77.60
57753;DHT22;43583;53.132;6.574;2022-08-05T07:46:09;28.60;76.20
57753;DHT22;43583;53.132;6.574;2022-08-05T07:48:35;29.50;72.80
57753;DHT22;43583;53.132;6.574;2022-08-05T07:51:00;30.20;69.70
57753;DHT22;43583;53.132;6.574;2022-08-05T07:53:26;30.30;67.80
57753;DHT22;43583;53.132;6.574;2022-08-05T07:55:51;30.50;66.10
57753;DHT22;43583;53.132;6.574;2022-08-05T07:58:17;31.20;65.80
57753;DHT22;43583;53.132;6.574;2022-08-05T08:00:43;31.90;63.00
57753;DHT22;43583;53.132;6.574;2022-08-05T08:03:09;32.90;62.60
57753;DHT22;43583;53.132;6.574;2022-08-05T08:05:36;32.90;58.90
57753;DHT22;43583;53.132;6.574;2022-08-05T08:08:02;32.00;58.70
57753;DHT22;43583;53.132;6.574;2022-08-05T08:10:28;30.50;58.50
57753;DHT22;43583;53.132;6.574;2022-08-05T08:12:53;29.80;60.90
57753;DHT22;43583;53.132;6.574;2022-08-05T08:15:19;29.90;60.60
57753;DHT22;43583;53.132;6.574;2022-08-05T08:17:45;31.20;61.00
57753;DHT22;43583;53.132;6.574;2022-08-05T08:20:11;31.80;60.30
57753;DHT22;43583;53.132;6.574;2022-08-05T08:22:37;31.40;58.40
57753;DHT22;43583;53.132;6.574;2022-08-05T08:25:03;30.20;58.80
57753;DHT22;43583;53.132;6.574;2022-08-05T08:27:30;29.70;59.70
57753;DHT22;43583;53.132;6.574;2022-08-05T08:29:56;30.10;61.20
57753;DHT22;43583;53.132;6.574;2022-08-05T08:32:21;30.80;59.30
57753;DHT22;43583;53.132;6.574;2022-08-05T08:34:48;31.90;59.10
57753;DHT22;43583;53.132;6.574;2022-08-05T08:37:14;32.70;57.40
57753;DHT22;43583;53.132;6.574;2022-08-05T08:39:39;33.70;54.60
57753;DHT22;43583;53.132;6.574;2022-08-05T08:42:08;33.40;52.90
57753;DHT22;43583;53.132;6.574;2022-08-05T08:44:34;32.00;53.30
57753;DHT22;43583;53.132;6.574;2022-08-05T08:47:01;30.40;55.40
57753;DHT22;43583;53.132;6.574;2022-08-05T08:49:28;29.30;57.70
57753;DHT22;43583;53.132;6.574;2022-08-05T08:52:02;27.80;60.00
57753;DHT22;43583;53.132;6.574;2022-08-05T08:54:30;26.50;63.40
57753;DHT22;43583;53.132;6.574;2022-08-05T08:56:57;26.30;67.70
57753;DHT22;43583;53.132;6.574;2022-08-05T08:59:23;27.30;69.20
57753;DHT22;43583;53.132;6.574;2022-08-05T09:01:49;28.20;66.50
57753;DHT22;43583;53.132;6.574;2022-08-05T09:04:15;29.20;63.40
57753;DHT22;43583;53.132;6.574;2022-08-05T09:06:40;29.90;62.60
57753;DHT22;43583;53.132;6.574;2022-08-05T09:09:06;30.60;59.70
57753;DHT22;43583;53.132;6.574;2022-08-05T09:11:33;30.80;57.50
57753;DHT22;43583;53.132;6.574;2022-08-05T09:13:59;29.80;56.80
57753;DHT22;43583;53.132;6.574;2022-08-05T09:16:25;28.50;58.40
57753;DHT22;43583;53.132;6.574;2022-08-05T09:18:51;28.10;61.20
57753;DHT22;43583;53.132;6.574;2022-08-05T09:21:18;28.70;62.40
57753;DHT22;43583;53.132;6.574;2022-08-05T09:23:44;29.10;60.10
57753;DHT22;43583;53.132;6.574;2022-08-05T09:26:12;29.60;59.90
57753;DHT22;43583;53.132;6.574;2022-08-05T09:28:42;29.90;57.90
57753;DHT22;43583;53.132;6.574;2022-08-05T09:31:10;29.30;58.10
57753;DHT22;43583;53.132;6.574;2022-08-05T09:33:51;27.80;58.70
57753;DHT22;43583;53.132;6.574;2022-08-05T09:36:18;27.20;61.40
57753;DHT22;43583;53.132;6.574;2022-08-05T09:39:01;27.20;62.50
57753;DHT22;43583;53.132;6.574;2022-08-05T09:41:27;27.60;62.10
57753;DHT22;43583;53.132;6.574;2022-08-05T09:43:52;27.70;60.90
57753;DHT22;43583;53.132;6.574;2022-08-05T09:46:27;27.70;59.80
57753;DHT22;43583;53.132;6.574;2022-08-05T09:48:52;27.80;61.20
57753;DHT22;43583;53.132;6.574;2022-08-05T09:51:34;27.50;58.30
57753;DHT22;43583;53.132;6.574;2022-08-05T09:54:00;27.60;61.50
57753;DHT22;43583;53.132;6.574;2022-08-05T09:56:28;27.40;61.50
57753;DHT22;43583;53.132;6.574;2022-08-05T09:59:16;26.80;59.70
57753;DHT22;43583;53.132;6.574;2022-08-05T10:01:42;26.30;59.50
57753;DHT22;43583;53.132;6.574;2022-08-05T10:04:11;26.30;61.20
57753;DHT22;43583;53.132;6.574;2022-08-05T10:06:56;26.20;60.00
57753;DHT22;43583;53.132;6.574;2022-08-05T10:09:22;26.10;61.90
57753;DHT22;43583;53.132;6.574;2022-08-05T10:11:48;26.20;61.80
57753;DHT22;43583;53.132;6.574;2022-08-05T10:14:30;26.10;61.70
57753;DHT22;43583;53.132;6.574;2022-08-05T10:17:11;26.30;59.90
57753;DHT22;43583;53.132;6.574;2022-08-05T10:19:37;26.20;60.80
57753;DHT22;43583;53.132;6.574;2022-08-05T10:22:03;26.20;60.00
57753;DHT22;43583;53.132;6.574;2022-08-05T10:24:31;26.10;59.90
57753;DHT22;43583;53.132;6.574;2022-08-05T10:26:57;26.10;58.70
57753;DHT22;43583;53.132;6.574;2022-08-05T10:29:25;26.20;57.70
57753;DHT22;43583;53.132;6.574;2022-08-05T10:31:51;26.00;57.10
57753;DHT22;43583;53.132;6.574;2022-08-05T10:34:18;25.70;56.20
57753;DHT22;43583;53.132;6.574;2022-08-05T10:36:44;25.90;57.80
57753;DHT22;43583;53.132;6.574;2022-08-05T10:39:16;26.10;59.00
57753;DHT22;43583;53.132;6.574;2022-08-05T10:41:49;26.10;55.60
57753;DHT22;43583;53.132;6.574;2022-08-05T10:44:19;25.90;55.70
57753;DHT22;43583;53.132;6.574;2022-08-05T10:46:52;25.60;53.90
57753;DHT22;43583;53.132;6.574;2022-08-05T10:49:19;25.40;52.50
57753;DHT22;43583;53.132;6.574;2022-08-05T10:51:49;25.40;52.00
57753;DHT22;43583;53.132;6.574;2022-08-05T10:54:16;25.30;52.70
57753;DHT22;43583;53.132;6.574;2022-08-05T10:56:49;25.20;53.30
57753;DHT22;43583;53.132;6.574;2022-08-05T10:59:27;25.20;51.80
57753;DHT22;43583;53.132;6.574;2022-08-05T11:02:07;25.30;54.30
57753;DHT22;43583;53.132;6.574;2022-08-05T11:04:45;25.40;52.10
57753;DHT22;43583;53.132;6.574;2022-08-05T11:07:12;25.20;53.00
57753;DHT22;43583;53.132;6.574;2022-08-05T11:09:46;25.40;52.80
57753;DHT22;43583;53.132;6.574;2022-08-05T11:17:35;25.50;53.00
57753;DHT22;43583;53.132;6.574;2022-08-05T11:20:06;25.30;53.00
57753;DHT22;43583;53.132;6.574;2022-08-05T11:22:44;25.20;53.60
57753;DHT22;43583;53.132;6.574;2022-08-05T11:25:40;25.10;53.50
57753;DHT22;43583;53.132;6.574;2022-08-05T11:33:56;24.90;55.40
57753;DHT22;43583;53.132;6.574;2022-08-05T11:36:42;24.90;56.00
57753;DHT22;43583;53.132;6.574;2022-08-05T11:39:09;25.10;56.00
57753;DHT22;43583;53.132;6.574;2022-08-05T11:41:36;25.10;56.10
57753;DHT22;43583;53.132;6.574;2022-08-05T11:44:12;24.90;55.70
57753;DHT22;43583;53.132;6.574;2022-08-05T11:46:53;24.50;57.00
57753;DHT22;43583;53.132;6.574;2022-08-05T11:49:20;24.40;58.70
57753;DHT22;43583;53.132;6.574;2022-08-05T11:51:50;24.60;60.00
57753;DHT22;43583;53.132;6.574;2022-08-05T11:54:29;24.30;59.30
57753;DHT22;43583;53.132;6.574;2022-08-05T11:56:58;24.10;59.20
57753;DHT22;43583;53.132;6.574;2022-08-05T11:59:27;23.90;60.30
57753;DHT22;43583;53.132;6.574;2022-08-05T12:02:01;23.90;61.30
57753;DHT22;43583;53.132;6.574;2022-08-05T12:04:35;23.80;61.70
57753;DHT22;43583;53.132;6.574;2022-08-05T12:07:01;23.70;61.30
57753;DHT22;43583;53.132;6.574;2022-08-05T12:09:28;23.50;61.90
57753;DHT22;43583;53.132;6.574;2022-08-05T12:11:55;23.60;61.40
57753;DHT22;43583;53.132;6.574;2022-08-05T12:14:21;23.40;60.10
57753;DHT22;43583;53.132;6.574;2022-08-05T12:16:48;23.30;59.90
57753;DHT22;43583;53.132;6.574;2022-08-05T12:19:15;23.10;60.90
57753;DHT22;43583;53.132;6.574;2022-08-05T12:21:43;23.10;62.40
57753;DHT22;43583;53.132;6.574;2022-08-05T12:24:12;23.40;62.30
57753;DHT22;43583;53.132;6.574;2022-08-05T12:27:01;23.50;61.80
57753;DHT22;43583;53.132;6.574;2022-08-05T12:29:27;23.70;62.00
57753;DHT22;43583;53.132;6.574;2022-08-05T12:31:58;23.80;62.20
57753;DHT22;43583;53.132;6.574;2022-08-05T12:34:29;23.60;62.50
57753;DHT22;43583;53.132;6.574;2022-08-05T12:36:57;23.40;62.10
57753;DHT22;43583;53.132;6.574;2022-08-05T12:39:25;23.30;62.40
57753;DHT22;43583;53.132;6.574;2022-08-05T12:41:59;23.10;63.40
57753;DHT22;43583;53.132;6.574;2022-08-05T12:44:25;23.00;63.90
57753;DHT22;43583;53.132;6.574;2022-08-05T12:46:52;23.10;64.90
57753;DHT22;43583;53.132;6.574;2022-08-05T12:49:18;23.00;65.40
57753;DHT22;43583;53.132;6.574;2022-08-05T12:51:55;23.00;66.20
57753;DHT22;43583;53.132;6.574;2022-08-05T12:54:29;22.90;65.30
57753;DHT22;43583;53.132;6.574;2022-08-05T12:56:57;22.60;65.10
57753;DHT22;43583;53.132;6.574;2022-08-05T12:59:26;22.60;66.20
57753;DHT22;43583;53.132;6.574;2022-08-05T13:02:14;22.40;65.50
57753;DHT22;43583;53.132;6.574;2022-08-05T13:04:42;22.40;64.40
57753;DHT22;43583;53.132;6.574;2022-08-05T13:07:13;22.40;66.40
57753;DHT22;43583;53.132;6.574;2022-08-05T13:09:41;22.40;67.40
57753;DHT22;43583;53.132;6.574;2022-08-05T13:12:12;22.30;66.30
57753;DHT22;43583;53.132;6.574;2022-08-05T13:17:20;22.10;67.00
57753;DHT22;43583;53.132;6.574;2022-08-05T13:20:06;21.90;66.00
57753;DHT22;43583;53.132;6.574;2022-08-05T13:22:34;21.80;69.10
57753;DHT22;43583;53.132;6.574;2022-08-05T13:25:03;21.80;68.70
57753;DHT22;43583;53.132;6.574;2022-08-05T13:27:37;21.70;68.60
57753;DHT22;43583;53.132;6.574;2022-08-05T13:30:04;21.90;68.10
57753;DHT22;43583;53.132;6.574;2022-08-05T13:32:31;22.00;68.80
57753;DHT22;43583;53.132;6.574;2022-08-05T13:34:57;22.30;68.10
57753;DHT22;43583;53.132;6.574;2022-08-05T13:37:23;22.60;66.10
57753;DHT22;43583;53.132;6.574;2022-08-05T13:39:50;22.70;65.20
57753;DHT22;43583;53.132;6.574;2022-08-05T13:42:18;22.90;64.70
57753;DHT22;43583;53.132;6.574;2022-08-05T13:44:44;23.00;65.00
57753;DHT22;43583;53.132;6.574;2022-08-05T13:47:10;23.10;64.00
57753;DHT22;43583;53.132;6.574;2022-08-05T13:49:35;23.10;64.60
57753;DHT22;43583;53.132;6.574;2022-08-05T13:52:12;23.00;64.10
57753;DHT22;43583;53.132;6.574;2022-08-05T13:54:39;22.70;62.40
57753;DHT22;43583;53.132;6.574;2022-08-05T13:57:06;22.40;62.70
57753;DHT22;43583;53.132;6.574;2022-08-05T13:59:32;22.60;64.30
57753;DHT22;43583;53.132;6.574;2022-08-05T14:01:58;22.70;64.10
57753;DHT22;43583;53.132;6.574;2022-08-05T14:04:24;22.90;64.50
57753;DHT22;43583;53.132;6.574;2022-08-05T14:07:08;23.10;62.10
57753;DHT22;43583;53.132;6.574;2022-08-05T14:09:34;23.20;62.90
57753;DHT22;43583;53.132;6.574;2022-08-05T14:12:00;23.00;62.90
57753;DHT22;43583;53.132;6.574;2022-08-05T14:14:25;22.80;63.20
57753;DHT22;43583;53.132;6.574;2022-08-05T14:16:51;22.80;65.30
57753;DHT22;43583;53.132;6.574;2022-08-05T14:19:17;22.70;66.40
57753;DHT22;43583;53.132;6.574;2022-08-05T14:21:42;22.40;67.50
57753;DHT22;43583;53.132;6.574;2022-08-05T14:24:08;22.10;69.50
57753;DHT22;43583;53.132;6.574;2022-08-05T14:26:35;21.90;70.10
57753;DHT22;43583;53.132;6.574;2022-08-05T14:29:01;21.80;70.50
57753;DHT22;43583;53.132;6.574;2022-08-05T14:31:27;21.60;71.00
57753;DHT22;43583;53.132;6.574;2022-08-05T14:33:52;21.40;71.50
57753;DHT22;43583;53.132;6.574;2022-08-05T14:36:18;21.30;72.20
57753;DHT22;43583;53.132;6.574;2022-08-05T14:38:43;21.30;72.80
57753;DHT22;43583;53.132;6.574;2022-08-05T14:41:09;21.30;72.80
57753;DHT22;43583;53.132;6.574;2022-08-05T14:43:35;21.30;71.90
57753;DHT22;43583;53.132;6.574;2022-08-05T14:46:01;21.30;71.90
57753;DHT22;43583;53.132;6.574;2022-08-05T14:48:26;21.30;71.90
57753;DHT22;43583;53.132;6.574;2022-08-05T14:50:52;21.40;72.60
57753;DHT22;43583;53.132;6.574;2022-08-05T14:53:17;21.40;72.10
57753;DHT22;43583;53.132;6.574;2022-08-05T14:55:43;21.40;71.20
57753;DHT22;43583;53.132;6.574;2022-08-05T14:58:09;21.30;71.20
57753;DHT22;43583;53.132;6.574;2022-08-05T15:00:35;21.30;72.40
57753;DHT22;43583;53.132;6.574;2022-08-05T15:03:01;21.30;72.20
57753;DHT22;43583;53.132;6.574;2022-08-05T15:05:27;21.20;70.60
57753;DHT22;43583;53.132;6.574;2022-08-05T15:07:53;21.20;70.90
57753;DHT22;43583;53.132;6.574;2022-08-05T15:10:18;21.10;71.00
57753;DHT22;43583;53.132;6.574;2022-08-05T15:12:44;21.30;71.70
57753;DHT22;43583;53.132;6.574;2022-08-05T15:15:09;21.50;71.60
57753;DHT22;43583;53.132;6.574;2022-08-05T15:17:35;21.70;71.50
57753;DHT22;43583;53.132;6.574;2022-08-05T15:20:01;21.60;69.40
57753;DHT22;43583;53.132;6.574;2022-08-05T15:22:27;21.60;70.20
57753;DHT22;43583;53.132;6.574;2022-08-05T15:24:52;21.70;69.70
57753;DHT22;43583;53.132;6.574;2022-08-05T15:27:18;21.80;68.40
57753;DHT22;43583;53.132;6.574;2022-08-05T15:29:43;21.60;67.50
57753;DHT22;43583;53.132;6.574;2022-08-05T15:32:09;21.60;66.60
57753;DHT22;43583;53.132;6.574;2022-08-05T15:34:34;21.50;66.70
57753;DHT22;43583;53.132;6.574;2022-08-05T15:37:00;21.50;66.90
57753;DHT22;43583;53.132;6.574;2022-08-05T15:39:26;21.40;67.20
57753;DHT22;43583;53.132;6.574;2022-08-05T15:41:52;21.40;67.30
57753;DHT22;43583;53.132;6.574;2022-08-05T15:44:17;21.20;66.80
57753;DHT22;43583;53.132;6.574;2022-08-05T15:46:43;21.20;67.10
57753;DHT22;43583;53.132;6.574;2022-08-05T15:49:08;21.30;67.60
57753;DHT22;43583;53.132;6.574;2022-08-05T15:51:34;21.20;66.80
57753;DHT22;43583;53.132;6.574;2022-08-05T15:53:59;21.10;67.50
57753;DHT22;43583;53.132;6.574;2022-08-05T15:56:25;21.00;66.20
57753;DHT22;43583;53.132;6.574;2022-08-05T15:58:50;21.00;65.90